Time;durP1;ratioP1;P1;durP2;ratioP2;P2;SDS_P1;SDS_P2;PMS_P1;PMS_P2;Temp;Humidity;BMP_temperature;BMP_pressure;BME280_temperature;BME280_humidity;BME280_pressure;Samples;Min_cycle;Max_cycle;Signal;HPM_P1;HPM_P2
2022/01/14 08:09:50;;;;;;;22.83;14.00;;;;;;;;;;12916309;22;1552486;-80
2022/01/14 08:15:09;;;;;;;22.27;14.73;;;;;;;;;;12923842;22;20019;-80
2022/01/14 08:20:24;;;;;;;18.92;12.88;;;;;;;;;;12909373;23;20035;-80
2022/01/14 08:31:07;;;;;;;20.67;13.55;;;;;;;;;;12630539;23;20039;-79
2022/01/14 08:36:12;;;;;;;21.25;13.73;;;;;;;;;;12898982;22;20014;-79
2022/01/14 08:41:13;;;;;;;20.60;13.50;;;;;;;;;;12915523;23;20004;-79
2022/01/14 08:46:14;;;;;;;;;;;;;;;;;;12912910;22;20008;-82
2022/01/14 08:51:24;;;;;;;19.45;12.95;;;;;;;;;;12912785;23;19922;-81
2022/01/14 08:56:25;;;;;;;19.15;13.10;;;;;;;;;;12913341;22;20008;-80
2022/01/14 09:01:26;;;;;;;;;;;;;;;;;;12912967;23;20000;-80
2022/01/14 09:07:17;;;;;;;23.23;16.23;;;;;;;;;;12914328;22;20228;-81
2022/01/14 09:12:24;;;;;;;18.38;12.52;;;;;;;;;;12939718;23;20070;-80
2022/01/14 09:17:25;;;;;;;23.55;14.70;;;;;;;;;;12916099;23;20333;-79
2022/01/14 09:22:30;;;;;;;25.67;15.32;;;;;;;;;;12916952;23;20000;-81
2022/01/14 09:27:39;;;;;;;23.98;15.05;;;;;;;;;;12888556;22;20028;-80
2022/01/14 09:33:57;;;;;;;24.35;16.02;;;;;;;;;;12889674;23;20008;-80
2022/01/14 09:38:41;;;;;;;22.02;14.20;;;;;;;;;;12912198;22;20352;-81
2022/01/14 09:49:26;;;;;;;19.98;13.68;;;;;;;;;;13000444;22;20024;-81
2022/01/14 09:54:47;;;;;;;20.52;14.40;;;;;;;;;;12973774;22;20069;-81
2022/01/14 09:59:49;;;;;;;21.35;14.13;;;;;;;;;;12890218;23;20011;-81
2022/01/14 10:05:29;;;;;;;24.20;17.20;;;;;;;;;;12911432;22;20008;-81
2022/01/14 10:10:31;;;;;;;23.45;15.70;;;;;;;;;;12912278;23;20020;-79
2022/01/14 10:15:42;;;;;;;21.75;13.93;;;;;;;;;;12937030;22;20082;-80
2022/01/14 10:20:43;;;;;;;24.60;16.08;;;;;;;;;;12909715;23;20004;-79
2022/01/14 10:26:04;;;;;;;20.35;14.20;;;;;;;;;;12935540;22;20306;-80
2022/01/14 10:31:32;;;;;;;19.63;13.10;;;;;;;;;;12936217;23;20012;-81
2022/01/14 10:36:54;;;;;;;18.15;13.10;;;;;;;;;;12910817;22;20008;-80
2022/01/14 10:41:58;;;;;;;22.70;14.63;;;;;;;;;;12911356;23;19997;-79
2022/01/14 10:47:19;;;;;;;19.85;13.25;;;;;;;;;;12911520;22;20012;-80
2022/01/14 10:52:23;;;;;;;19.35;13.55;;;;;;;;;;12913974;23;20059;-81
2022/01/14 10:57:29;;;;;;;20.33;13.20;;;;;;;;;;12912847;23;20004;-81
2022/01/14 11:02:36;;;;;;;19.75;13.88;;;;;;;;;;12938253;23;20096;-81
2022/01/14 11:07:43;;;;;;;21.55;14.40;;;;;;;;;;12939829;22;20011;-80
2022/01/14 11:12:45;;;;;;;29.95;18.20;;;;;;;;;;12914558;23;20036;-78
2022/01/14 11:18:12;;;;;;;19.05;13.25;;;;;;;;;;12911393;23;20004;-79
2022/01/14 11:23:15;;;;;;;21.42;14.40;;;;;;;;;;12904500;23;20310;-79
2022/01/14 11:28:19;;;;;;;;;;;;;;;;;;12907486;23;20409;-79
2022/01/14 11:33:20;;;;;;;21.77;14.00;;;;;;;;;;12910830;23;20320;-80
2022/01/14 11:38:21;;;;;;;;;;;;;;;;;;12938144;22;20000;-80
2022/01/14 11:43:53;;;;;;;21.75;14.38;;;;;;;;;;12913457;23;19937;-82
2022/01/14 11:48:54;;;;;;;21.42;14.50;;;;;;;;;;12893410;23;20027;-81
2022/01/14 11:53:56;;;;;;;;;;;;;;;;;;12919007;23;20043;-81
2022/01/14 11:59:20;;;;;;;19.70;13.35;;;;;;;;;;12919084;23;19904;-80
2022/01/14 12:04:21;;;;;;;24.00;14.80;;;;;;;;;;12944043;23;19996;-80
2022/01/14 12:09:23;;;;;;;22.20;14.80;;;;;;;;;;12917068;23;20101;-80
2022/01/14 12:14:36;;;;;;;26.00;16.70;;;;;;;;;;12946726;22;20008;-81
2022/01/14 12:19:39;;;;;;;20.25;13.85;;;;;;;;;;12922263;23;20526;-80
2022/01/14 12:24:40;;;;;;;33.60;21.25;;;;;;;;;;12921883;22;20055;-81
2022/01/14 12:29:53;;;;;;;28.95;19.88;;;;;;;;;;12917257;23;20023;-82
2022/01/14 12:34:54;;;;;;;31.40;21.67;;;;;;;;;;12915887;22;20011;-80
2022/01/14 12:39:55;;;;;;;;;;;;;;;;;;12920556;23;20011;-81
2022/01/14 12:44:58;;;;;;;30.77;21.08;;;;;;;;;;12944886;22;19916;-81
2022/01/14 12:50:05;;;;;;;29.80;20.30;;;;;;;;;;12915398;23;20012;-80
2022/01/14 12:55:07;;;;;;;26.67;17.80;;;;;;;;;;12915168;22;20000;-80
2022/01/14 13:00:09;;;;;;;25.63;16.67;;;;;;;;;;12915448;23;20329;-80
2022/01/14 13:05:21;;;;;;;32.13;21.90;;;;;;;;;;12912888;22;20023;-81
2022/01/14 13:10:24;;;;;;;29.08;19.52;;;;;;;;;;12914357;23;20023;-79
2022/01/14 13:15:26;;;;;;;24.38;15.95;;;;;;;;;;12942567;22;20056;-81
2022/01/14 13:20:31;;;;;;;31.05;20.02;;;;;;;;;;12912903;23;20038;-80
2022/01/14 13:25:44;;;;;;;24.60;17.45;;;;;;;;;;12912047;22;20083;-80
2022/01/14 13:30:45;;;;;;;20.58;14.60;;;;;;;;;;12941107;23;19996;-80
2022/01/14 13:35:49;;;;;;;23.50;16.35;;;;;;;;;;12911710;22;20087;-79
2022/01/14 13:41:00;;;;;;;30.60;19.23;;;;;;;;;;12914231;23;20036;-80
2022/01/14 13:46:06;;;;;;;27.42;18.27;;;;;;;;;;12933789;22;20035;-82
2022/01/14 13:51:09;;;;;;;26.50;18.25;;;;;;;;;;12911144;23;20012;-81
2022/01/14 13:56:18;;;;;;;26.55;17.63;;;;;;;;;;12913609;22;20032;-80
2022/01/14 14:01:28;;;;;;;28.23;17.70;;;;;;;;;;12948228;23;20071;-81
2022/01/14 14:06:39;;;;;;;31.30;20.13;;;;;;;;;;12918273;22;20062;-80
2022/01/14 14:16:59;;;;;;;25.02;16.83;;;;;;;;;;12934834;22;20036;-78
2022/01/14 14:22:18;;;;;;;24.88;16.90;;;;;;;;;;12909416;23;20008;-79
2022/01/14 14:27:40;;;;;;;26.15;16.80;;;;;;;;;;12912773;22;20059;-80
2022/01/14 14:32:42;;;;;;;26.65;18.20;;;;;;;;;;12877527;22;20020;-86
2022/01/14 14:37:47;;;;;;;29.05;18.13;;;;;;;;;;12907875;23;20443;-85
2022/01/14 14:42:48;;;;;;;24.58;15.80;;;;;;;;;;12906454;22;20040;-85
2022/01/14 14:47:50;;;;;;;26.63;18.58;;;;;;;;;;12887533;23;20013;-83
2022/01/14 14:52:52;;;;;;;26.05;17.17;;;;;;;;;;12888948;23;20039;-84
2022/01/14 14:57:53;;;;;;;;;;;;;;;;;;12891394;23;20009;-83
2022/01/14 15:02:57;;;;;;;22.90;15.75;;;;;;;;;;12893399;23;19923;-84
2022/01/14 15:07:58;;;;;;;36.28;23.63;;;;;;;;;;12885204;23;20005;-82
2022/01/14 15:12:59;;;;;;;29.23;18.90;;;;;;;;;;12884835;23;20004;-83
2022/01/14 15:23:08;;;;;;;26.27;17.50;;;;;;;;;;12885757;23;19900;-82
2022/01/14 15:28:10;;;;;;;28.67;18.63;;;;;;;;;;12886436;23;20047;-83
2022/01/14 15:33:11;;;;;;;22.45;15.27;;;;;;;;;;12884299;23;20022;-83
2022/01/14 15:38:12;;;;;;;;;;;;;;;;;;12885941;23;20005;-84
2022/01/14 15:43:13;;;;;;;25.42;16.40;;;;;;;;;;12883264;23;19900;-85
2022/01/14 15:48:14;;;;;;;27.75;19.02;;;;;;;;;;12884682;23;20035;-84
2022/01/14 15:53:15;;;;;;;29.25;19.30;;;;;;;;;;12885486;23;20000;-83
2022/01/14 15:58:16;;;;;;;;;;;;;;;;;;12888349;23;20064;-84
2022/01/14 16:03:17;;;;;;;26.33;17.13;;;;;;;;;;12883593;23;19919;-84
2022/01/14 16:08:19;;;;;;;26.33;17.83;;;;;;;;;;12884966;23;20036;-84
2022/01/14 16:13:21;;;;;;;30.88;21.08;;;;;;;;;;12860790;23;20011;-84
2022/01/14 16:18:22;;;;;;;24.40;17.23;;;;;;;;;;12886931;23;19993;-84
2022/01/14 16:23:23;;;;;;;;;;;;;;;;;;12889268;23;20001;-84
2022/01/14 16:28:24;;;;;;;22.17;14.75;;;;;;;;;;12915783;23;20290;-84
2022/01/14 16:33:32;;;;;;;33.45;20.27;;;;;;;;;;12889948;23;20016;-84
2022/01/14 16:38:34;;;;;;;29.42;20.02;;;;;;;;;;12880925;23;20341;-81
2022/01/14 16:43:36;;;;;;;31.95;20.67;;;;;;;;;;12876015;23;20056;-82
2022/01/14 16:48:37;;;;;;;33.30;21.00;;;;;;;;;;12876060;23;20016;-81
2022/01/14 16:53:38;;;;;;;28.67;19.83;;;;;;;;;;12876761;23;20001;-81
2022/01/14 16:58:39;;;;;;;28.73;18.92;;;;;;;;;;12876260;23;20008;-80
2022/01/14 17:03:40;;;;;;;31.10;20.13;;;;;;;;;;12875587;23;20031;-80
2022/01/14 17:08:41;;;;;;;;;;;;;;;;;;12879751;23;20015;-80
2022/01/14 17:13:42;;;;;;;30.38;19.92;;;;;;;;;;12878770;23;19943;-81
2022/01/14 22:39:49;;;;;;;13.52;10.55;;;;;;;;;;12936825;22;20070;-86
2022/01/14 22:44:56;;;;;;;12.07;9.65;;;;;;;;;;12911837;23;20009;-86
2022/01/14 23:07:33;;;;;;;9.23;7.43;;;;;;;;;;12937341;22;20066;-86
